createdAt,value
2022-08-18T00:02:36.723Z,96724.09
2022-08-18T00:07:39.502Z,96714.13
2022-08-18T00:12:49.065Z,96689.41
2022-08-18T00:17:50.999Z,96677.56
2022-08-18T00:22:53.265Z,96703.38
2022-08-18T00:27:55.044Z,96730.00
2022-08-18T00:32:59.080Z,96732.31
2022-08-18T00:38:03.351Z,96713.88
2022-08-18T00:43:07.778Z,96727.19
2022-08-18T00:48:11.283Z,96709.81
2022-08-18T00:53:29.451Z,96696.81
2022-08-18T00:58:37.077Z,96690.50
2022-08-18T01:03:41.296Z,96689.72
2022-08-18T01:08:43.601Z,96698.66
2022-08-18T01:13:45.903Z,96700.75
2022-08-18T01:19:06.069Z,96708.50
2022-08-18T01:24:12.961Z,96690.84
2022-08-18T01:29:18.855Z,96678.25
2022-08-18T01:34:24.536Z,96672.34
2022-08-18T01:41:21.185Z,96663.91
2022-08-18T01:44:51.108Z,96668.44
2022-08-18T01:49:53.423Z,96655.81
2022-08-18T01:54:57.834Z,96662.81
2022-08-18T02:00:01.090Z,96667.72
2022-08-18T02:05:08.400Z,96668.41
2022-08-18T02:10:12.151Z,96667.50
2022-08-18T02:15:14.118Z,96666.91
2022-08-18T02:20:17.978Z,96647.09
2022-08-18T02:25:19.955Z,96645.69
2022-08-18T02:30:22.025Z,96641.00
2022-08-18T02:35:23.753Z,96655.94
2022-08-18T02:40:25.453Z,96655.94
2022-08-18T02:45:27.112Z,96656.78
2022-08-18T02:50:28.931Z,96662.00
2022-08-18T02:55:31.045Z,96665.81
2022-08-18T03:00:32.718Z,96684.47
2022-08-18T03:05:34.680Z,96688.31
2022-08-18T03:10:36.341Z,96681.44
2022-08-18T03:15:37.961Z,96679.56
2022-08-18T03:20:39.685Z,96665.16
2022-08-18T03:25:45.618Z,96662.38
2022-08-18T03:30:47.326Z,96662.84
2022-08-18T03:35:49.057Z,96664.94
2022-08-18T03:40:52.720Z,96665.16
2022-08-18T03:45:54.770Z,96659.84
2022-08-18T03:51:05.475Z,96661.22
2022-08-18T03:56:16.090Z,96672.81
2022-08-18T04:01:25.278Z,96666.41
2022-08-18T04:06:32.849Z,96659.56
2022-08-18T04:11:37.256Z,96661.88
2022-08-18T04:16:40.549Z,96650.41
2022-08-18T04:21:42.797Z,96657.47
2022-08-18T04:26:47.046Z,96651.88
2022-08-18T04:31:50.336Z,96652.75
2022-08-18T04:36:54.870Z,96656.03
2022-08-18T04:41:56.649Z,96663.66
2022-08-18T04:47:00.322Z,96661.34
2022-08-18T04:52:39.687Z,96656.50
2022-08-18T04:57:43.099Z,96660.69
2022-08-18T05:02:44.835Z,96652.84
2022-08-18T05:07:47.354Z,96668.81
2022-08-18T05:12:49.553Z,96665.50
2022-08-18T05:17:51.361Z,96660.00
2022-08-18T05:22:53.083Z,96678.06
2022-08-18T05:27:54.731Z,96698.00
2022-08-18T05:32:56.533Z,96718.88
2022-08-18T05:38:35.199Z,96719.56
2022-08-18T05:43:40.682Z,96731.56
2022-08-18T05:48:53.501Z,96728.63
2022-08-18T05:54:14.377Z,96729.56
2022-08-18T05:59:45.673Z,96718.19
2022-08-18T06:04:57.008Z,96723.16
2022-08-18T06:09:59.049Z,96735.19
2022-08-18T06:15:23.079Z,96732.94
2022-08-18T06:20:53.478Z,96723.31
2022-08-18T06:26:11.072Z,96714.63
2022-08-18T06:31:29.645Z,96728.03
2022-08-18T06:36:39.318Z,96748.22
2022-08-18T06:41:48.979Z,96739.03
2022-08-18T06:47:04.167Z,96743.34
2022-08-18T06:52:31.225Z,96752.88
2022-08-18T06:57:38.160Z,96751.28
2022-08-18T07:02:55.707Z,96740.75
2022-08-18T07:08:10.460Z,96741.22
2022-08-18T07:13:17.289Z,96756.31
2022-08-18T07:18:29.911Z,96759.44
2022-08-18T07:23:40.724Z,96744.34
2022-08-18T07:28:48.314Z,96729.59
2022-08-18T07:34:01.189Z,96706.53
2022-08-18T07:39:11.130Z,96692.13
2022-08-18T07:44:33.860Z,96687.00
2022-08-18T07:49:37.142Z,96687.47
2022-08-18T07:55:06.215Z,96694.88
2022-08-18T08:00:47.736Z,96709.00
2022-08-18T08:05:56.365Z,96691.31
2022-08-18T08:10:59.256Z,96697.09
2022-08-18T08:16:23.113Z,96685.91
2022-08-18T08:21:31.794Z,96716.56
2022-08-18T08:26:57.297Z,96690.16
2022-08-18T08:32:05.357Z,96693.50
2022-08-18T08:37:14.853Z,96685.09
2022-08-18T08:42:30.978Z,96696.72
2022-08-18T08:48:08.738Z,96699.84
2022-08-18T08:53:21.234Z,96675.88
2022-08-18T08:58:37.558Z,96694.53
2022-08-18T09:03:53.258Z,96684.78
2022-08-18T09:09:06.241Z,96681.81
2022-08-18T09:14:32.389Z,96672.34
2022-08-18T09:19:52.728Z,96656.31
2022-08-18T09:24:55.785Z,96649.66
2022-08-18T09:30:03.359Z,96663.44
2022-08-18T09:35:44.071Z,96660.88
2022-08-18T09:41:12.705Z,96647.97
2022-08-18T09:46:42.382Z,96644.03
2022-08-18T09:51:45.503Z,96654.38
2022-08-18T09:56:53.882Z,96668.97
2022-08-18T10:01:57.557Z,96677.28
2022-08-18T10:07:44.018Z,96675.56
2022-08-18T10:13:16.154Z,96683.50
2022-08-18T10:18:53.251Z,96668.88
2022-08-18T10:29:23.826Z,96663.72
2022-08-18T10:34:51.584Z,96632.75
2022-08-18T10:40:10.104Z,96631.84
2022-08-18T10:45:35.013Z,96626.81
2022-08-18T10:51:15.349Z,96621.56
2022-08-18T10:56:30.317Z,96628.34
2022-08-18T11:01:35.562Z,96633.06
2022-08-18T11:06:44.045Z,96629.22
2022-08-18T11:11:59.436Z,96623.38
2022-08-18T11:17:11.530Z,96610.78
2022-08-18T11:22:34.365Z,96602.88
2022-08-18T11:27:46.917Z,96597.47
2022-08-18T11:32:51.960Z,96605.69
2022-08-18T11:38:05.245Z,96595.78
2022-08-18T11:43:10.436Z,96583.56
2022-08-18T11:48:37.755Z,96587.09
2022-08-18T11:54:18.527Z,96571.94
2022-08-18T12:04:53.449Z,96537.34
2022-08-18T12:10:19.903Z,96526.00
2022-08-18T12:15:44.326Z,96518.97
2022-08-18T12:20:49.593Z,96508.28
2022-08-18T12:25:53.019Z,96481.81
2022-08-18T12:30:56.234Z,96480.63
2022-08-18T12:35:59.149Z,96461.72
2022-08-18T12:41:01.646Z,96457.38
2022-08-18T12:46:06.453Z,96471.88
2022-08-18T12:51:14.237Z,96454.63
2022-08-18T12:56:22.173Z,96463.88
2022-08-18T13:01:27.676Z,96474.34
2022-08-18T13:06:31.166Z,96467.13
2022-08-18T13:11:33.151Z,96456.25
2022-08-18T13:16:54.076Z,96452.25
2022-08-18T13:21:57.241Z,96449.88
2022-08-18T13:26:59.164Z,96447.06
2022-08-18T13:32:00.867Z,96444.63
2022-08-18T13:37:02.690Z,96446.25
2022-08-18T13:42:21.557Z,96437.41
2022-08-18T13:47:28.378Z,96421.28
2022-08-18T13:52:34.674Z,96425.28
2022-08-18T13:57:39.687Z,96426.09
2022-08-18T14:02:42.222Z,96422.13
2022-08-18T14:07:45.455Z,96410.03
2022-08-18T14:12:47.462Z,96394.75
2022-08-18T14:17:51.662Z,96397.16
2022-08-18T14:23:23.872Z,96381.84
2022-08-18T14:28:31.896Z,96384.28
2022-08-18T14:33:51.723Z,96390.31
2022-08-18T14:38:55.444Z,96385.09
2022-08-18T14:44:11.866Z,96377.84
2022-08-18T14:49:15.531Z,96370.59
2022-08-18T14:54:32.306Z,96349.69
2022-08-18T14:59:34.675Z,96346.47
2022-08-18T15:04:56.073Z,96336.81
2022-08-18T15:10:14.481Z,96335.97
2022-08-18T15:15:18.497Z,96316.69
2022-08-18T15:20:28.652Z,96323.94
2022-08-18T15:25:44.852Z,96308.63
2022-08-18T15:30:51.216Z,96312.66
2022-08-18T15:35:53.541Z,96324.72
2022-08-18T15:40:58.250Z,96322.34
2022-08-18T15:46:00.846Z,96335.97
2022-08-18T15:51:11.493Z,96331.16
2022-08-18T15:56:16.477Z,96328.75
2022-08-18T16:01:30.381Z,96334.00
2022-08-18T16:06:37.325Z,96331.19
2022-08-18T16:11:41.227Z,96312.66
2022-08-18T16:16:42.918Z,96303.78
2022-08-18T16:21:44.562Z,96290.94
2022-08-18T16:26:46.339Z,96299.72
2022-08-18T16:31:48.964Z,96302.97
2022-08-18T16:36:50.724Z,96302.91
2022-08-18T16:41:52.508Z,96305.34
2022-08-18T16:46:54.201Z,96293.28
2022-08-18T16:51:56.079Z,96299.69
2022-08-18T16:56:58.428Z,96296.47
2022-08-18T17:02:18.828Z,96300.41
2022-08-18T17:07:20.607Z,96305.97
2022-08-18T17:12:23.056Z,96301.09
2022-08-18T17:17:25.015Z,96287.72
2022-08-18T17:22:26.867Z,96292.09
2022-08-18T17:27:37.809Z,96296.47
2022-08-18T17:32:42.768Z,96296.78
2022-08-18T17:37:52.088Z,96298.28
2022-08-18T17:42:55.271Z,96303.81
2022-08-18T17:48:04.418Z,96322.22
2022-08-18T17:53:06.555Z,96324.53
2022-08-18T17:58:30.741Z,96332.38
2022-08-18T18:03:34.013Z,96337.56
2022-08-18T18:08:50.620Z,96337.84
2022-08-18T18:13:52.573Z,96330.53
2022-08-18T18:19:00.909Z,96345.44
2022-08-18T18:24:06.007Z,96344.41
2022-08-18T18:29:19.193Z,96366.72
2022-08-18T18:34:31.757Z,96368.19
2022-08-18T18:39:35.961Z,96369.59
2022-08-18T18:44:37.725Z,96372.50
2022-08-18T18:50:04.858Z,96375.53
2022-08-18T18:55:15.228Z,96394.56
2022-08-18T19:00:19.938Z,96395.16
2022-08-18T19:05:44.707Z,96391.88
2022-08-18T19:10:57.408Z,96404.44
2022-08-18T19:16:09.584Z,96409.63
2022-08-18T19:22:05.034Z,96419.09
2022-08-18T19:26:48.682Z,96429.63
2022-08-18T19:32:01.171Z,96416.03
2022-08-18T19:37:31.334Z,96439.31
2022-08-18T19:42:42.949Z,96457.03
2022-08-18T19:48:05.113Z,96462.16
2022-08-18T19:53:31.396Z,96454.88
2022-08-18T20:04:51.545Z,96475.22
2022-08-18T20:10:08.388Z,96477.56
2022-08-18T20:15:16.728Z,96486.13
2022-08-18T20:20:18.640Z,96488.59
2022-08-18T20:25:23.503Z,96484.06
2022-08-18T20:30:47.917Z,96495.41
2022-08-18T20:36:13.873Z,96511.91
2022-08-18T20:41:39.559Z,96533.59
2022-08-18T20:46:47.352Z,96544.69
2022-08-18T20:51:57.877Z,96542.84
2022-08-18T20:57:02.665Z,96531.69
2022-08-18T21:02:24.519Z,96536.94
2022-08-18T21:07:37.877Z,96538.81
2022-08-18T21:12:52.173Z,96547.78
2022-08-18T21:18:03.788Z,96570.78
2022-08-18T21:23:12.000Z,96575.53
2022-08-18T21:28:13.821Z,96574.50
2022-08-18T21:33:21.004Z,96596.47
2022-08-18T21:38:28.656Z,96596.47
2022-08-18T21:43:49.162Z,96593.19
2022-08-18T21:48:54.781Z,96583.47
2022-08-18T21:53:58.516Z,96569.84
2022-08-18T21:59:12.995Z,96564.66
2022-08-18T22:04:24.271Z,96565.72
2022-08-18T22:09:48.312Z,96565.47
2022-08-18T22:14:54.774Z,96568.47
2022-08-18T22:20:35.058Z,96564.31
2022-08-18T22:25:36.768Z,96563.50
2022-08-18T22:30:38.494Z,96565.00
2022-08-18T22:35:40.470Z,96573.59
2022-08-18T22:40:42.188Z,96577.78
2022-08-18T22:45:43.873Z,96577.44
2022-08-18T22:50:46.261Z,96573.34
2022-08-18T22:55:49.282Z,96576.28
2022-08-18T23:00:52.640Z,96565.34
2022-08-18T23:06:11.499Z,96560.59
2022-08-18T23:11:13.238Z,96541.63
2022-08-18T23:16:31.968Z,96536.28
2022-08-18T23:21:35.797Z,96528.28
2022-08-18T23:26:38.179Z,96519.13
2022-08-18T23:31:41.944Z,96514.50
2022-08-18T23:36:45.970Z,96504.84
2022-08-18T23:41:47.852Z,96484.13
2022-08-18T23:46:51.015Z,96495.94
2022-08-18T23:51:55.904Z,96503.81
2022-08-18T23:56:58.042Z,96519.38
